sensor_id;sensor_type;location;lat;lon;timestamp;P1;durP1;ratioP1;P2;durP2;ratioP2
67433;SDS011;54305;47.950;6.572;2023-11-21T00:02:14;1.48;;;0.70;;
67433;SDS011;54305;47.950;6.572;2023-11-21T00:04:39;0.50;;;0.50;;
67433;SDS011;54305;47.950;6.572;2023-11-21T00:07:05;0.50;;;0.50;;
67433;SDS011;54305;47.950;6.572;2023-11-21T00:09:31;0.60;;;0.60;;
67433;SDS011;54305;47.950;6.572;2023-11-21T00:11:57;0.50;;;0.50;;
67433;SDS011;54305;47.950;6.572;2023-11-21T00:14:24;0.68;;;0.57;;
67433;SDS011;54305;47.950;6.572;2023-11-21T00:16:49;0.40;;;0.32;;
67433;SDS011;54305;47.950;6.572;2023-11-21T00:19:15;0.50;;;0.50;;
67433;SDS011;54305;47.950;6.572;2023-11-21T00:21:41;0.70;;;0.70;;
67433;SDS011;54305;47.950;6.572;2023-11-21T00:24:09;0.55;;;0.55;;
67433;SDS011;54305;47.950;6.572;2023-11-21T00:26:35;0.60;;;0.60;;
67433;SDS011;54305;47.950;6.572;2023-11-21T00:29:02;0.50;;;0.50;;
67433;SDS011;54305;47.950;6.572;2023-11-21T00:31:27;1.70;;;0.73;;
67433;SDS011;54305;47.950;6.572;2023-11-21T00:33:53;1.35;;;0.60;;
67433;SDS011;54305;47.950;6.572;2023-11-21T00:36:19;0.85;;;0.60;;
67433;SDS011;54305;47.950;6.572;2023-11-21T00:38:45;0.40;;;0.40;;
67433;SDS011;54305;47.950;6.572;2023-11-21T00:41:10;0.40;;;0.40;;
67433;SDS011;54305;47.950;6.572;2023-11-21T00:43:36;0.43;;;0.40;;
67433;SDS011;54305;47.950;6.572;2023-11-21T00:46:04;0.45;;;0.45;;
67433;SDS011;54305;47.950;6.572;2023-11-21T00:48:32;0.80;;;0.20;;
67433;SDS011;54305;47.950;6.572;2023-11-21T00:50:58;1.02;;;0.60;;
67433;SDS011;54305;47.950;6.572;2023-11-21T00:53:23;0.73;;;0.73;;
67433;SDS011;54305;47.950;6.572;2023-11-21T00:55:49;0.75;;;0.75;;
67433;SDS011;54305;47.950;6.572;2023-11-21T00:58:14;12.65;;;1.10;;
67433;SDS011;54305;47.950;6.572;2023-11-21T01:00:39;27.40;;;1.27;;
67433;SDS011;54305;47.950;6.572;2023-11-21T01:03:05;16.73;;;1.13;;
67433;SDS011;54305;47.950;6.572;2023-11-21T01:05:32;0.60;;;0.60;;
67433;SDS011;54305;47.950;6.572;2023-11-21T01:07:59;0.82;;;0.57;;
67433;SDS011;54305;47.950;6.572;2023-11-21T01:10:24;0.60;;;0.60;;
67433;SDS011;54305;47.950;6.572;2023-11-21T01:12:50;0.40;;;0.40;;
67433;SDS011;54305;47.950;6.572;2023-11-21T01:15:15;0.30;;;0.30;;
67433;SDS011;54305;47.950;6.572;2023-11-21T01:17:41;0.40;;;0.40;;
67433;SDS011;54305;47.950;6.572;2023-11-21T01:20:06;18.55;;;0.90;;
67433;SDS011;54305;47.950;6.572;2023-11-21T01:22:36;40.50;;;1.90;;
67433;SDS011;54305;47.950;6.572;2023-11-21T01:25:02;8.82;;;1.05;;
67433;SDS011;54305;47.950;6.572;2023-11-21T01:27:29;24.92;;;1.02;;
67433;SDS011;54305;47.950;6.572;2023-11-21T01:29:55;0.90;;;0.90;;
67433;SDS011;54305;47.950;6.572;2023-11-21T01:32:20;31.67;;;1.60;;
67433;SDS011;54305;47.950;6.572;2023-11-21T01:34:45;71.10;;;2.00;;
67433;SDS011;54305;47.950;6.572;2023-11-21T01:37:11;72.57;;;2.28;;
67433;SDS011;54305;47.950;6.572;2023-11-21T01:39:37;25.80;;;1.52;;
67433;SDS011;54305;47.950;6.572;2023-11-21T01:42:04;51.50;;;1.98;;
67433;SDS011;54305;47.950;6.572;2023-11-21T01:44:30;46.50;;;1.88;;
67433;SDS011;54305;47.950;6.572;2023-11-21T01:46:55;44.38;;;1.75;;
67433;SDS011;54305;47.950;6.572;2023-11-21T01:49:22;23.70;;;1.67;;
67433;SDS011;54305;47.950;6.572;2023-11-21T01:51:48;12.48;;;1.50;;
67433;SDS011;54305;47.950;6.572;2023-11-21T01:54:16;6.45;;;1.38;;
67433;SDS011;54305;47.950;6.572;2023-11-21T01:56:46;50.25;;;1.83;;
67433;SDS011;54305;47.950;6.572;2023-11-21T01:59:17;50.80;;;1.85;;
67433;SDS011;54305;47.950;6.572;2023-11-21T02:01:44;49.00;;;1.88;;
67433;SDS011;54305;47.950;6.572;2023-11-21T02:04:11;1.50;;;1.30;;
67433;SDS011;54305;47.950;6.572;2023-11-21T02:06:37;1.70;;;1.60;;
67433;SDS011;54305;47.950;6.572;2023-11-21T02:09:04;1.30;;;1.20;;
67433;SDS011;54305;47.950;6.572;2023-11-21T02:11:29;10.15;;;1.55;;
67433;SDS011;54305;47.950;6.572;2023-11-21T02:13:55;2.33;;;1.30;;
67433;SDS011;54305;47.950;6.572;2023-11-21T02:16:23;1.33;;;1.23;;
67433;SDS011;54305;47.950;6.572;2023-11-21T02:18:48;3.05;;;1.13;;
67433;SDS011;54305;47.950;6.572;2023-11-21T02:21:16;2.40;;;1.60;;
67433;SDS011;54305;47.950;6.572;2023-11-21T02:23:41;2.25;;;1.30;;
67433;SDS011;54305;47.950;6.572;2023-11-21T02:26:09;1.50;;;1.35;;
67433;SDS011;54305;47.950;6.572;2023-11-21T02:28:36;1.50;;;1.40;;
67433;SDS011;54305;47.950;6.572;2023-11-21T02:31:02;2.22;;;1.40;;
67433;SDS011;54305;47.950;6.572;2023-11-21T02:33:29;1.92;;;1.50;;
67433;SDS011;54305;47.950;6.572;2023-11-21T02:35:55;13.50;;;1.63;;
67433;SDS011;54305;47.950;6.572;2023-11-21T02:38:20;12.73;;;1.90;;
67433;SDS011;54305;47.950;6.572;2023-11-21T02:40:46;2.03;;;1.50;;
67433;SDS011;54305;47.950;6.572;2023-11-21T02:43:12;19.58;;;2.05;;
67433;SDS011;54305;47.950;6.572;2023-11-21T02:45:37;17.75;;;2.08;;
67433;SDS011;54305;47.950;6.572;2023-11-21T02:48:03;30.55;;;2.17;;
67433;SDS011;54305;47.950;6.572;2023-11-21T02:50:29;5.40;;;1.80;;
67433;SDS011;54305;47.950;6.572;2023-11-21T02:52:55;12.73;;;2.20;;
67433;SDS011;54305;47.950;6.572;2023-11-21T02:55:22;3.08;;;1.90;;
67433;SDS011;54305;47.950;6.572;2023-11-21T02:57:49;1.73;;;1.23;;
67433;SDS011;54305;47.950;6.572;2023-11-21T03:00:15;1.60;;;1.40;;
67433;SDS011;54305;47.950;6.572;2023-11-21T03:02:41;5.32;;;1.90;;
67433;SDS011;54305;47.950;6.572;2023-11-21T03:05:08;2.00;;;1.80;;
67433;SDS011;54305;47.950;6.572;2023-11-21T03:07:34;2.35;;;1.88;;
67433;SDS011;54305;47.950;6.572;2023-11-21T03:10:01;1.95;;;1.77;;
67433;SDS011;54305;47.950;6.572;2023-11-21T03:12:27;3.03;;;2.08;;
67433;SDS011;54305;47.950;6.572;2023-11-21T03:14:52;3.00;;;2.08;;
67433;SDS011;54305;47.950;6.572;2023-11-21T03:17:19;1.58;;;1.48;;
67433;SDS011;54305;47.950;6.572;2023-11-21T03:19:44;3.10;;;1.58;;
67433;SDS011;54305;47.950;6.572;2023-11-21T03:22:09;1.85;;;1.17;;
67433;SDS011;54305;47.950;6.572;2023-11-21T03:24:36;1.70;;;1.48;;
67433;SDS011;54305;47.950;6.572;2023-11-21T03:27:03;1.42;;;1.33;;
67433;SDS011;54305;47.950;6.572;2023-11-21T03:29:29;4.97;;;1.50;;
67433;SDS011;54305;47.950;6.572;2023-11-21T03:31:54;4.13;;;1.27;;
67433;SDS011;54305;47.950;6.572;2023-11-21T03:34:24;2.88;;;1.30;;
67433;SDS011;54305;47.950;6.572;2023-11-21T03:36:51;1.08;;;1.02;;
67433;SDS011;54305;47.950;6.572;2023-11-21T03:39:18;1.25;;;1.15;;
67433;SDS011;54305;47.950;6.572;2023-11-21T03:41:45;1.10;;;1.00;;
67433;SDS011;54305;47.950;6.572;2023-11-21T03:44:10;3.60;;;1.15;;
67433;SDS011;54305;47.950;6.572;2023-11-21T03:46:36;1.50;;;1.33;;
67433;SDS011;54305;47.950;6.572;2023-11-21T03:49:01;4.05;;;1.33;;
67433;SDS011;54305;47.950;6.572;2023-11-21T03:51:26;1.52;;;1.10;;
67433;SDS011;54305;47.950;6.572;2023-11-21T03:53:52;1.52;;;1.20;;
67433;SDS011;54305;47.950;6.572;2023-11-21T03:56:17;1.85;;;1.20;;
67433;SDS011;54305;47.950;6.572;2023-11-21T03:58:43;1.10;;;1.00;;
67433;SDS011;54305;47.950;6.572;2023-11-21T04:01:08;1.17;;;1.08;;
67433;SDS011;54305;47.950;6.572;2023-11-21T04:03:34;1.20;;;1.08;;
67433;SDS011;54305;47.950;6.572;2023-11-21T04:05:59;1.83;;;1.20;;
67433;SDS011;54305;47.950;6.572;2023-11-21T04:08:26;2.45;;;1.15;;
67433;SDS011;54305;47.950;6.572;2023-11-21T04:10:51;2.38;;;1.10;;
67433;SDS011;54305;47.950;6.572;2023-11-21T04:13:18;1.00;;;0.95;;
67433;SDS011;54305;47.950;6.572;2023-11-21T04:15:44;2.15;;;1.15;;
67433;SDS011;54305;47.950;6.572;2023-11-21T04:18:09;0.98;;;0.98;;
67433;SDS011;54305;47.950;6.572;2023-11-21T04:20:35;2.20;;;1.10;;
67433;SDS011;54305;47.950;6.572;2023-11-21T04:23:00;1.90;;;1.20;;
67433;SDS011;54305;47.950;6.572;2023-11-21T04:25:26;2.20;;;1.30;;
67433;SDS011;54305;47.950;6.572;2023-11-21T04:27:52;4.50;;;1.08;;
67433;SDS011;54305;47.950;6.572;2023-11-21T04:30:18;6.28;;;1.00;;
67433;SDS011;54305;47.950;6.572;2023-11-21T04:32:43;2.00;;;1.20;;
67433;SDS011;54305;47.950;6.572;2023-11-21T04:35:09;1.23;;;1.10;;
67433;SDS011;54305;47.950;6.572;2023-11-21T04:37:34;2.75;;;1.10;;
67433;SDS011;54305;47.950;6.572;2023-11-21T04:39:59;0.82;;;0.82;;
67433;SDS011;54305;47.950;6.572;2023-11-21T04:42:25;2.08;;;1.10;;
67433;SDS011;54305;47.950;6.572;2023-11-21T04:44:51;1.52;;;1.15;;
67433;SDS011;54305;47.950;6.572;2023-11-21T04:47:17;1.08;;;1.00;;
67433;SDS011;54305;47.950;6.572;2023-11-21T04:49:45;3.65;;;1.10;;
67433;SDS011;54305;47.950;6.572;2023-11-21T04:52:14;5.18;;;1.13;;
67433;SDS011;54305;47.950;6.572;2023-11-21T04:54:39;1.88;;;0.95;;
67433;SDS011;54305;47.950;6.572;2023-11-21T04:57:05;1.98;;;1.13;;
67433;SDS011;54305;47.950;6.572;2023-11-21T04:59:32;1.33;;;1.15;;
67433;SDS011;54305;47.950;6.572;2023-11-21T05:01:58;1.48;;;1.27;;
67433;SDS011;54305;47.950;6.572;2023-11-21T05:04:25;3.70;;;1.33;;
67433;SDS011;54305;47.950;6.572;2023-11-21T05:06:50;2.42;;;1.05;;
67433;SDS011;54305;47.950;6.572;2023-11-21T05:09:16;4.00;;;1.30;;
67433;SDS011;54305;47.950;6.572;2023-11-21T05:11:41;1.50;;;1.10;;
67433;SDS011;54305;47.950;6.572;2023-11-21T05:14:06;2.85;;;1.17;;
67433;SDS011;54305;47.950;6.572;2023-11-21T05:16:32;2.42;;;1.10;;
67433;SDS011;54305;47.950;6.572;2023-11-21T05:18:58;1.20;;;1.10;;
67433;SDS011;54305;47.950;6.572;2023-11-21T05:21:25;1.75;;;1.20;;
67433;SDS011;54305;47.950;6.572;2023-11-21T05:23:51;1.25;;;1.15;;
67433;SDS011;54305;47.950;6.572;2023-11-21T05:26:17;2.60;;;1.40;;
67433;SDS011;54305;47.950;6.572;2023-11-21T05:28:43;4.00;;;1.40;;
67433;SDS011;54305;47.950;6.572;2023-11-21T05:31:08;1.48;;;1.20;;
67433;SDS011;54305;47.950;6.572;2023-11-21T05:33:33;3.50;;;1.10;;
67433;SDS011;54305;47.950;6.572;2023-11-21T05:35:59;4.03;;;1.20;;
67433;SDS011;54305;47.950;6.572;2023-11-21T05:38:24;1.65;;;1.33;;
67433;SDS011;54305;47.950;6.572;2023-11-21T05:40:49;1.60;;;1.50;;
67433;SDS011;54305;47.950;6.572;2023-11-21T05:43:15;1.55;;;1.40;;
67433;SDS011;54305;47.950;6.572;2023-11-21T05:45:40;6.57;;;1.40;;
67433;SDS011;54305;47.950;6.572;2023-11-21T05:48:06;2.13;;;1.20;;
67433;SDS011;54305;47.950;6.572;2023-11-21T05:50:31;3.53;;;1.50;;
67433;SDS011;54305;47.950;6.572;2023-11-21T05:52:57;1.25;;;1.15;;
67433;SDS011;54305;47.950;6.572;2023-11-21T05:55:25;2.42;;;1.38;;
67433;SDS011;54305;47.950;6.572;2023-11-21T05:57:50;1.40;;;1.30;;
67433;SDS011;54305;47.950;6.572;2023-11-21T06:00:16;1.88;;;1.30;;
67433;SDS011;54305;47.950;6.572;2023-11-21T06:02:52;4.00;;;1.40;;
67433;SDS011;54305;47.950;6.572;2023-11-21T06:05:18;2.38;;;1.30;;
67433;SDS011;54305;47.950;6.572;2023-11-21T06:07:45;2.75;;;1.33;;
67433;SDS011;54305;47.950;6.572;2023-11-21T06:10:11;1.77;;;1.40;;
67433;SDS011;54305;47.950;6.572;2023-11-21T06:12:42;2.08;;;1.20;;
67433;SDS011;54305;47.950;6.572;2023-11-21T06:15:08;1.23;;;1.00;;
67433;SDS011;54305;47.950;6.572;2023-11-21T06:17:38;1.38;;;1.27;;
67433;SDS011;54305;47.950;6.572;2023-11-21T06:20:05;2.75;;;1.00;;
67433;SDS011;54305;47.950;6.572;2023-11-21T06:22:37;1.20;;;1.10;;
67433;SDS011;54305;47.950;6.572;2023-11-21T06:25:04;1.80;;;1.00;;
67433;SDS011;54305;47.950;6.572;2023-11-21T06:27:33;1.58;;;1.00;;
67433;SDS011;54305;47.950;6.572;2023-11-21T06:30:03;1.33;;;1.23;;
67433;SDS011;54305;47.950;6.572;2023-11-21T06:32:29;1.40;;;1.30;;
67433;SDS011;54305;47.950;6.572;2023-11-21T06:34:57;3.72;;;1.63;;
67433;SDS011;54305;47.950;6.572;2023-11-21T06:37:28;2.00;;;1.52;;
67433;SDS011;54305;47.950;6.572;2023-11-21T06:39:54;3.15;;;1.80;;
67433;SDS011;54305;47.950;6.572;2023-11-21T06:42:20;2.30;;;1.60;;
67433;SDS011;54305;47.950;6.572;2023-11-21T06:44:45;1.85;;;1.60;;
67433;SDS011;54305;47.950;6.572;2023-11-21T06:47:11;3.83;;;1.90;;
67433;SDS011;54305;47.950;6.572;2023-11-21T06:49:37;3.30;;;1.65;;
67433;SDS011;54305;47.950;6.572;2023-11-21T06:52:03;3.10;;;1.90;;
67433;SDS011;54305;47.950;6.572;2023-11-21T06:54:30;7.70;;;1.80;;
67433;SDS011;54305;47.950;6.572;2023-11-21T06:56:56;3.00;;;2.08;;
67433;SDS011;54305;47.950;6.572;2023-11-21T06:59:22;3.25;;;2.30;;
67433;SDS011;54305;47.950;6.572;2023-11-21T07:01:48;3.65;;;2.15;;
67433;SDS011;54305;47.950;6.572;2023-11-21T07:04:14;4.72;;;2.20;;
67433;SDS011;54305;47.950;6.572;2023-11-21T07:06:40;4.47;;;2.42;;
67433;SDS011;54305;47.950;6.572;2023-11-21T07:09:05;3.50;;;2.03;;
67433;SDS011;54305;47.950;6.572;2023-11-21T07:11:33;4.78;;;2.35;;
67433;SDS011;54305;47.950;6.572;2023-11-21T07:13:59;3.20;;;2.30;;
67433;SDS011;54305;47.950;6.572;2023-11-21T07:16:24;3.53;;;2.33;;
67433;SDS011;54305;47.950;6.572;2023-11-21T07:18:50;3.70;;;2.15;;
67433;SDS011;54305;47.950;6.572;2023-11-21T07:21:15;6.82;;;2.40;;
67433;SDS011;54305;47.950;6.572;2023-11-21T07:23:41;3.25;;;2.13;;
67433;SDS011;54305;47.950;6.572;2023-11-21T07:26:07;3.35;;;2.50;;
67433;SDS011;54305;47.950;6.572;2023-11-21T07:28:34;3.20;;;2.05;;
67433;SDS011;54305;47.950;6.572;2023-11-21T07:30:59;3.67;;;2.58;;
67433;SDS011;54305;47.950;6.572;2023-11-21T07:33:25;5.85;;;2.65;;
67433;SDS011;54305;47.950;6.572;2023-11-21T07:35:51;3.72;;;2.53;;
67433;SDS011;54305;47.950;6.572;2023-11-21T07:38:16;3.58;;;2.35;;
67433;SDS011;54305;47.950;6.572;2023-11-21T07:40:42;3.85;;;2.47;;
67433;SDS011;54305;47.950;6.572;2023-11-21T07:43:08;3.30;;;2.55;;
67433;SDS011;54305;47.950;6.572;2023-11-21T07:45:34;3.63;;;2.72;;
67433;SDS011;54305;47.950;6.572;2023-11-21T07:47:59;6.75;;;2.70;;
67433;SDS011;54305;47.950;6.572;2023-11-21T07:50:28;3.33;;;2.80;;
67433;SDS011;54305;47.950;6.572;2023-11-21T07:52:53;3.45;;;2.55;;
67433;SDS011;54305;47.950;6.572;2023-11-21T07:55:19;3.75;;;2.50;;
67433;SDS011;54305;47.950;6.572;2023-11-21T07:57:45;3.65;;;2.42;;
67433;SDS011;54305;47.950;6.572;2023-11-21T08:00:10;3.83;;;2.72;;
67433;SDS011;54305;47.950;6.572;2023-11-21T08:02:37;4.88;;;2.75;;
67433;SDS011;54305;47.950;6.572;2023-11-21T08:05:04;4.68;;;2.53;;
67433;SDS011;54305;47.950;6.572;2023-11-21T08:07:30;4.18;;;2.25;;
67433;SDS011;54305;47.950;6.572;2023-11-21T08:09:56;2.95;;;2.38;;
67433;SDS011;54305;47.950;6.572;2023-11-21T08:12:21;3.80;;;2.40;;
67433;SDS011;54305;47.950;6.572;2023-11-21T08:14:47;3.03;;;2.10;;
67433;SDS011;54305;47.950;6.572;2023-11-21T08:17:12;2.63;;;2.33;;
67433;SDS011;54305;47.950;6.572;2023-11-21T08:19:39;3.15;;;2.28;;
67433;SDS011;54305;47.950;6.572;2023-11-21T08:22:04;4.63;;;2.20;;
67433;SDS011;54305;47.950;6.572;2023-11-21T08:24:32;3.03;;;2.70;;
67433;SDS011;54305;47.950;6.572;2023-11-21T08:26:58;3.03;;;2.42;;
67433;SDS011;54305;47.950;6.572;2023-11-21T08:29:23;6.57;;;2.80;;
67433;SDS011;54305;47.950;6.572;2023-11-21T08:31:48;5.53;;;4.18;;
67433;SDS011;54305;47.950;6.572;2023-11-21T08:34:14;3.78;;;2.80;;
67433;SDS011;54305;47.950;6.572;2023-11-21T08:36:43;2.88;;;2.40;;
67433;SDS011;54305;47.950;6.572;2023-11-21T08:39:09;4.00;;;2.58;;
67433;SDS011;54305;47.950;6.572;2023-11-21T08:41:38;4.82;;;2.35;;
67433;SDS011;54305;47.950;6.572;2023-11-21T08:44:03;3.20;;;2.40;;
67433;SDS011;54305;47.950;6.572;2023-11-21T08:46:32;5.18;;;2.63;;
67433;SDS011;54305;47.950;6.572;2023-11-21T08:49:00;4.80;;;2.55;;
67433;SDS011;54305;47.950;6.572;2023-11-21T08:51:26;2.83;;;2.40;;
67433;SDS011;54305;47.950;6.572;2023-11-21T08:53:51;3.72;;;2.72;;
67433;SDS011;54305;47.950;6.572;2023-11-21T08:56:18;2.40;;;2.20;;
67433;SDS011;54305;47.950;6.572;2023-11-21T08:58:45;4.53;;;2.50;;
67433;SDS011;54305;47.950;6.572;2023-11-21T09:01:11;4.15;;;2.60;;
67433;SDS011;54305;47.950;6.572;2023-11-21T09:03:37;3.92;;;2.95;;
67433;SDS011;54305;47.950;6.572;2023-11-21T09:06:03;5.78;;;2.75;;
67433;SDS011;54305;47.950;6.572;2023-11-21T09:08:29;4.15;;;2.78;;
67433;SDS011;54305;47.950;6.572;2023-11-21T09:10:55;5.93;;;2.90;;
67433;SDS011;54305;47.950;6.572;2023-11-21T09:13:20;4.78;;;2.97;;
67433;SDS011;54305;47.950;6.572;2023-11-21T09:15:45;5.38;;;2.78;;
67433;SDS011;54305;47.950;6.572;2023-11-21T09:18:14;4.15;;;2.70;;
67433;SDS011;54305;47.950;6.572;2023-11-21T09:20:40;5.13;;;2.58;;
67433;SDS011;54305;47.950;6.572;2023-11-21T09:23:07;4.22;;;2.70;;
67433;SDS011;54305;47.950;6.572;2023-11-21T09:25:33;3.63;;;2.63;;
67433;SDS011;54305;47.950;6.572;2023-11-21T09:27:58;4.57;;;2.55;;
67433;SDS011;54305;47.950;6.572;2023-11-21T09:30:24;3.92;;;2.47;;
67433;SDS011;54305;47.950;6.572;2023-11-21T09:32:50;4.93;;;2.92;;
67433;SDS011;54305;47.950;6.572;2023-11-21T09:35:16;3.90;;;3.10;;
67433;SDS011;54305;47.950;6.572;2023-11-21T09:37:45;3.55;;;2.58;;
67433;SDS011;54305;47.950;6.572;2023-11-21T11:00:21;1.63;;;1.08;;
67433;SDS011;54305;47.950;6.572;2023-11-21T11:02:50;2.55;;;1.20;;
67433;SDS011;54305;47.950;6.572;2023-11-21T11:05:19;1.05;;;0.90;;
67433;SDS011;54305;47.950;6.572;2023-11-21T11:07:45;1.30;;;1.20;;
67433;SDS011;54305;47.950;6.572;2023-11-21T11:10:17;1.65;;;0.80;;
67433;SDS011;54305;47.950;6.572;2023-11-21T11:12:45;1.00;;;1.00;;
67433;SDS011;54305;47.950;6.572;2023-11-21T11:15:12;1.00;;;1.00;;
67433;SDS011;54305;47.950;6.572;2023-11-21T11:17:39;1.08;;;1.02;;
67433;SDS011;54305;47.950;6.572;2023-11-21T11:20:07;1.10;;;1.10;;
67433;SDS011;54305;47.950;6.572;2023-11-21T11:27:52;1.42;;;1.30;;
67433;SDS011;54305;47.950;6.572;2023-11-21T11:30:47;1.27;;;1.17;;
67433;SDS011;54305;47.950;6.572;2023-11-21T11:33:42;1.63;;;1.52;;
67433;SDS011;54305;47.950;6.572;2023-11-21T11:38:45;1.58;;;1.48;;
67433;SDS011;54305;47.950;6.572;2023-11-21T11:41:11;1.60;;;1.50;;
67433;SDS011;54305;47.950;6.572;2023-11-21T11:43:37;2.17;;;1.60;;
67433;SDS011;54305;47.950;6.572;2023-11-21T11:46:09;1.50;;;1.38;;
67433;SDS011;54305;47.950;6.572;2023-11-21T11:48:38;1.60;;;1.50;;
67433;SDS011;54305;47.950;6.572;2023-11-21T11:53:39;1.00;;;1.00;;
67433;SDS011;54305;47.950;6.572;2023-11-21T11:58:48;1.38;;;1.27;;
67433;SDS011;54305;47.950;6.572;2023-11-21T12:01:24;2.22;;;1.50;;
67433;SDS011;54305;47.950;6.572;2023-11-21T12:06:59;2.05;;;1.40;;
67433;SDS011;54305;47.950;6.572;2023-11-21T12:09:35;2.03;;;1.73;;
67433;SDS011;54305;47.950;6.572;2023-11-21T12:12:05;1.73;;;1.60;;
67433;SDS011;54305;47.950;6.572;2023-11-21T12:14:31;2.45;;;1.40;;
67433;SDS011;54305;47.950;6.572;2023-11-21T12:16:56;1.33;;;1.23;;
67433;SDS011;54305;47.950;6.572;2023-11-21T12:19:22;1.60;;;1.50;;
67433;SDS011;54305;47.950;6.572;2023-11-21T12:21:47;2.47;;;1.50;;
67433;SDS011;54305;47.950;6.572;2023-11-21T12:24:14;1.70;;;1.60;;
67433;SDS011;54305;47.950;6.572;2023-11-21T12:26:41;1.70;;;1.42;;
67433;SDS011;54305;47.950;6.572;2023-11-21T12:29:08;1.77;;;1.63;;
67433;SDS011;54305;47.950;6.572;2023-11-21T12:31:35;1.40;;;1.30;;
67433;SDS011;54305;47.950;6.572;2023-11-21T12:34:01;4.30;;;1.65;;
67433;SDS011;54305;47.950;6.572;2023-11-21T12:36:26;1.58;;;1.48;;
67433;SDS011;54305;47.950;6.572;2023-11-21T12:38:54;2.15;;;1.80;;
67433;SDS011;54305;47.950;6.572;2023-11-21T12:41:19;1.60;;;1.50;;
67433;SDS011;54305;47.950;6.572;2023-11-21T12:43:46;2.42;;;1.80;;
67433;SDS011;54305;47.950;6.572;2023-11-21T12:46:12;3.15;;;1.83;;
67433;SDS011;54305;47.950;6.572;2023-11-21T12:48:43;2.30;;;1.90;;
67433;SDS011;54305;47.950;6.572;2023-11-21T12:51:13;2.25;;;2.00;;
67433;SDS011;54305;47.950;6.572;2023-11-21T12:53:43;2.42;;;2.10;;
67433;SDS011;54305;47.950;6.572;2023-11-21T12:56:10;2.47;;;2.20;;
67433;SDS011;54305;47.950;6.572;2023-11-21T12:58:36;2.20;;;1.98;;
67433;SDS011;54305;47.950;6.572;2023-11-21T13:01:04;4.35;;;2.38;;
67433;SDS011;54305;47.950;6.572;2023-11-21T13:03:30;3.40;;;2.50;;
67433;SDS011;54305;47.950;6.572;2023-11-21T13:05:56;3.13;;;2.45;;
67433;SDS011;54305;47.950;6.572;2023-11-21T13:08:22;2.70;;;2.40;;
67433;SDS011;54305;47.950;6.572;2023-11-21T13:10:52;2.95;;;2.60;;
67433;SDS011;54305;47.950;6.572;2023-11-21T13:13:20;4.70;;;3.38;;
67433;SDS011;54305;47.950;6.572;2023-11-21T13:15:49;2.92;;;2.38;;
67433;SDS011;54305;47.950;6.572;2023-11-21T13:18:33;4.07;;;2.65;;
67433;SDS011;54305;47.950;6.572;2023-11-21T13:20:59;3.55;;;2.78;;
67433;SDS011;54305;47.950;6.572;2023-11-21T13:23:39;3.65;;;2.60;;
67433;SDS011;54305;47.950;6.572;2023-11-21T13:26:06;3.42;;;2.58;;
67433;SDS011;54305;47.950;6.572;2023-11-21T13:28:32;3.55;;;2.63;;
67433;SDS011;54305;47.950;6.572;2023-11-21T13:30:58;3.40;;;2.63;;
67433;SDS011;54305;47.950;6.572;2023-11-21T13:33:43;2.78;;;2.33;;
67433;SDS011;54305;47.950;6.572;2023-11-21T13:36:15;2.65;;;2.28;;
67433;SDS011;54305;47.950;6.572;2023-11-21T13:38:47;2.58;;;2.28;;
67433;SDS011;54305;47.950;6.572;2023-11-21T13:41:13;3.45;;;2.70;;
67433;SDS011;54305;47.950;6.572;2023-11-21T13:43:39;3.55;;;2.88;;
67433;SDS011;54305;47.950;6.572;2023-11-21T13:46:08;4.90;;;2.90;;
67433;SDS011;54305;47.950;6.572;2023-11-21T13:48:46;3.97;;;3.00;;
67433;SDS011;54305;47.950;6.572;2023-11-21T13:51:21;3.70;;;2.83;;
67433;SDS011;54305;47.950;6.572;2023-11-21T13:53:55;5.40;;;2.85;;
67433;SDS011;54305;47.950;6.572;2023-11-21T13:56:21;4.03;;;2.90;;
67433;SDS011;54305;47.950;6.572;2023-11-21T13:58:50;3.80;;;2.97;;
67433;SDS011;54305;47.950;6.572;2023-11-21T14:01:26;4.45;;;3.10;;
67433;SDS011;54305;47.950;6.572;2023-11-21T14:06:48;4.68;;;2.88;;
67433;SDS011;54305;47.950;6.572;2023-11-21T14:09:18;7.28;;;3.03;;
67433;SDS011;54305;47.950;6.572;2023-11-21T14:11:58;4.50;;;3.28;;
67433;SDS011;54305;47.950;6.572;2023-11-21T14:14:25;5.45;;;3.42;;
67433;SDS011;54305;47.950;6.572;2023-11-21T14:16:52;3.30;;;2.78;;
67433;SDS011;54305;47.950;6.572;2023-11-21T14:19:18;5.03;;;3.08;;
67433;SDS011;54305;47.950;6.572;2023-11-21T14:21:44;3.35;;;2.85;;
67433;SDS011;54305;47.950;6.572;2023-11-21T14:24:13;5.30;;;3.35;;
67433;SDS011;54305;47.950;6.572;2023-11-21T14:26:42;5.40;;;3.30;;
67433;SDS011;54305;47.950;6.572;2023-11-21T14:29:10;3.85;;;2.95;;
67433;SDS011;54305;47.950;6.572;2023-11-21T14:31:39;6.78;;;3.33;;
67433;SDS011;54305;47.950;6.572;2023-11-21T14:34:04;4.43;;;2.92;;
67433;SDS011;54305;47.950;6.572;2023-11-21T14:36:32;4.80;;;3.40;;
67433;SDS011;54305;47.950;6.572;2023-11-21T14:38:57;5.18;;;3.22;;
67433;SDS011;54305;47.950;6.572;2023-11-21T14:41:23;3.70;;;2.78;;
67433;SDS011;54305;47.950;6.572;2023-11-21T14:43:53;5.45;;;3.10;;
67433;SDS011;54305;47.950;6.572;2023-11-21T14:46:19;6.63;;;3.33;;
67433;SDS011;54305;47.950;6.572;2023-11-21T14:48:45;4.38;;;3.13;;
67433;SDS011;54305;47.950;6.572;2023-11-21T14:51:24;3.15;;;2.72;;
67433;SDS011;54305;47.950;6.572;2023-11-21T14:53:58;4.68;;;2.80;;
67433;SDS011;54305;47.950;6.572;2023-11-21T14:56:31;5.07;;;2.83;;
67433;SDS011;54305;47.950;6.572;2023-11-21T14:58:59;3.58;;;3.05;;
67433;SDS011;54305;47.950;6.572;2023-11-21T15:01:31;4.28;;;2.55;;
67433;SDS011;54305;47.950;6.572;2023-11-21T15:04:26;3.00;;;2.50;;
67433;SDS011;54305;47.950;6.572;2023-11-21T15:07:07;4.55;;;2.72;;
67433;SDS011;54305;47.950;6.572;2023-11-21T15:09:33;3.70;;;2.17;;
67433;SDS011;54305;47.950;6.572;2023-11-21T15:12:00;2.63;;;2.33;;
67433;SDS011;54305;47.950;6.572;2023-11-21T15:14:47;3.30;;;2.58;;
67433;SDS011;54305;47.950;6.572;2023-11-21T15:17:17;3.65;;;2.50;;
67433;SDS011;54305;47.950;6.572;2023-11-21T15:19:55;2.63;;;2.08;;
67433;SDS011;54305;47.950;6.572;2023-11-21T15:22:20;3.70;;;2.47;;
67433;SDS011;54305;47.950;6.572;2023-11-21T15:24:47;3.55;;;2.55;;
67433;SDS011;54305;47.950;6.572;2023-11-21T15:27:14;3.50;;;2.40;;
67433;SDS011;54305;47.950;6.572;2023-11-21T15:29:40;2.95;;;2.38;;
67433;SDS011;54305;47.950;6.572;2023-11-21T15:32:07;2.95;;;2.17;;
67433;SDS011;54305;47.950;6.572;2023-11-21T15:34:33;3.35;;;2.15;;
67433;SDS011;54305;47.950;6.572;2023-11-21T15:36:59;5.72;;;2.20;;
67433;SDS011;54305;47.950;6.572;2023-11-21T15:39:24;2.83;;;1.85;;
67433;SDS011;54305;47.950;6.572;2023-11-21T15:41:55;2.92;;;2.13;;
67433;SDS011;54305;47.950;6.572;2023-11-21T15:44:21;2.33;;;2.13;;
67433;SDS011;54305;47.950;6.572;2023-11-21T15:46:48;2.95;;;2.30;;
67433;SDS011;54305;47.950;6.572;2023-11-21T15:49:14;6.13;;;2.67;;
67433;SDS011;54305;47.950;6.572;2023-11-21T15:51:42;4.35;;;2.58;;
67433;SDS011;54305;47.950;6.572;2023-11-21T15:54:17;6.65;;;2.40;;
67433;SDS011;54305;47.950;6.572;2023-11-21T15:56:49;3.75;;;2.88;;
67433;SDS011;54305;47.950;6.572;2023-11-21T15:59:22;4.60;;;2.42;;
67433;SDS011;54305;47.950;6.572;2023-11-21T16:01:49;2.65;;;2.17;;
67433;SDS011;54305;47.950;6.572;2023-11-21T16:04:14;4.85;;;2.70;;
67433;SDS011;54305;47.950;6.572;2023-11-21T16:06:44;3.65;;;2.50;;
67433;SDS011;54305;47.950;6.572;2023-11-21T16:09:10;3.42;;;2.75;;
67433;SDS011;54305;47.950;6.572;2023-11-21T16:11:55;4.40;;;2.63;;
67433;SDS011;54305;47.950;6.572;2023-11-21T16:14:25;4.65;;;2.60;;
67433;SDS011;54305;47.950;6.572;2023-11-21T16:16:54;5.82;;;3.50;;
67433;SDS011;54305;47.950;6.572;2023-11-21T16:19:21;4.93;;;2.80;;
67433;SDS011;54305;47.950;6.572;2023-11-21T16:21:47;6.88;;;2.92;;
67433;SDS011;54305;47.950;6.572;2023-11-21T16:24:13;7.57;;;3.05;;
67433;SDS011;54305;47.950;6.572;2023-11-21T16:26:44;3.95;;;3.13;;
67433;SDS011;54305;47.950;6.572;2023-11-21T16:29:11;3.72;;;2.55;;